sensor_id;sensor_type;location;lat;lon;timestamp;pressure;altitude;pressure_sealevel;temperature;humidity
13420;BME280;6781;58.440;15.470;2022-07-12T00:00:26;101060.34;;;12.94;100.00
13420;BME280;6781;58.440;15.470;2022-07-12T00:02:55;101265.66;;;14.17;100.00
13420;BME280;6781;58.440;15.470;2022-07-12T00:05:22;101267.81;;;14.12;100.00
13420;BME280;6781;58.440;15.470;2022-07-12T00:07:49;101276.03;;;14.08;100.00
13420;BME280;6781;58.440;15.470;2022-07-12T00:10:17;101080.44;;;12.71;100.00
13420;BME280;6781;58.440;15.470;2022-07-12T00:12:44;101173.91;;;13.29;100.00
13420;BME280;6781;58.440;15.470;2022-07-12T00:15:11;101212.16;;;13.60;100.00
13420;BME280;6781;58.440;15.470;2022-07-12T00:17:39;101201.69;;;13.40;100.00
13420;BME280;6781;58.440;15.470;2022-07-12T00:20:06;101244.84;;;13.64;100.00
13420;BME280;6781;58.440;15.470;2022-07-12T00:22:33;101275.06;;;13.88;100.00
13420;BME280;6781;58.440;15.470;2022-07-12T00:25:00;101194.25;;;13.35;100.00
13420;BME280;6781;58.440;15.470;2022-07-12T00:27:28;101207.66;;;13.30;100.00
13420;BME280;6781;58.440;15.470;2022-07-12T00:29:58;101287.72;;;13.72;100.00
13420;BME280;6781;58.440;15.470;2022-07-12T00:32:25;101279.19;;;13.70;100.00
13420;BME280;6781;58.440;15.470;2022-07-12T00:34:52;101282.03;;;13.66;100.00
13420;BME280;6781;58.440;15.470;2022-07-12T00:37:19;101271.66;;;13.55;100.00
13420;BME280;6781;58.440;15.470;2022-07-12T00:39:46;101252.06;;;13.29;100.00
13420;BME280;6781;58.440;15.470;2022-07-12T00:42:13;101102.38;;;12.47;100.00
13420;BME280;6781;58.440;15.470;2022-07-12T00:44:41;101297.72;;;13.55;100.00
13420;BME280;6781;58.440;15.470;2022-07-12T00:47:19;101192.44;;;12.92;100.00
13420;BME280;6781;58.440;15.470;2022-07-12T00:49:48;101312.41;;;13.56;100.00
13420;BME280;6781;58.440;15.470;2022-07-12T00:52:15;101251.38;;;13.27;100.00
13420;BME280;6781;58.440;15.470;2022-07-12T00:54:42;101298.94;;;13.40;100.00
13420;BME280;6781;58.440;15.470;2022-07-12T00:57:09;101232.06;;;13.07;100.00
13420;BME280;6781;58.440;15.470;2022-07-12T00:59:37;101150.63;;;12.51;100.00
13420;BME280;6781;58.440;15.470;2022-07-12T01:02:05;101289.34;;;13.41;100.00
13420;BME280;6781;58.440;15.470;2022-07-12T01:04:33;101091.75;;;12.16;100.00
13420;BME280;6781;58.440;15.470;2022-07-12T01:07:00;101171.53;;;12.60;100.00
13420;BME280;6781;58.440;15.470;2022-07-12T01:09:28;101291.59;;;13.34;100.00
13420;BME280;6781;58.440;15.470;2022-07-12T01:11:57;101285.22;;;13.27;100.00
13420;BME280;6781;58.440;15.470;2022-07-12T01:14:25;101242.16;;;12.78;100.00
13420;BME280;6781;58.440;15.470;2022-07-12T01:16:52;101256.81;;;12.90;100.00
13420;BME280;6781;58.440;15.470;2022-07-12T01:19:21;101293.88;;;13.16;100.00
13420;BME280;6781;58.440;15.470;2022-07-12T01:21:47;101236.94;;;12.78;100.00
13420;BME280;6781;58.440;15.470;2022-07-12T01:24:18;101301.09;;;13.13;100.00
13420;BME280;6781;58.440;15.470;2022-07-12T01:26:45;101314.09;;;13.13;100.00
13420;BME280;6781;58.440;15.470;2022-07-12T01:29:13;101287.59;;;12.96;100.00
13420;BME280;6781;58.440;15.470;2022-07-12T01:31:41;101275.19;;;12.78;100.00
13420;BME280;6781;58.440;15.470;2022-07-12T01:34:08;101220.75;;;12.52;100.00
13420;BME280;6781;58.440;15.470;2022-07-12T01:36:35;101291.97;;;12.96;100.00
13420;BME280;6781;58.440;15.470;2022-07-12T01:39:03;101239.78;;;12.64;100.00
13420;BME280;6781;58.440;15.470;2022-07-12T01:41:32;101311.50;;;13.01;100.00
13420;BME280;6781;58.440;15.470;2022-07-12T01:43:59;101263.34;;;12.62;100.00
13420;BME280;6781;58.440;15.470;2022-07-12T01:46:26;101301.56;;;12.84;100.00
13420;BME280;6781;58.440;15.470;2022-07-12T01:48:52;101279.66;;;12.64;100.00
13420;BME280;6781;58.440;15.470;2022-07-12T01:51:20;101325.25;;;12.92;100.00
13420;BME280;6781;58.440;15.470;2022-07-12T01:53:46;101294.47;;;12.75;100.00
13420;BME280;6781;58.440;15.470;2022-07-12T01:56:14;101242.63;;;12.38;100.00
13420;BME280;6781;58.440;15.470;2022-07-12T01:58:43;101286.03;;;12.60;100.00
13420;BME280;6781;58.440;15.470;2022-07-12T02:01:11;101250.41;;;12.27;100.00
13420;BME280;6781;58.440;15.470;2022-07-12T02:03:37;101303.56;;;12.58;100.00
13420;BME280;6781;58.440;15.470;2022-07-12T02:08:41;101219.75;;;11.97;100.00
13420;BME280;6781;58.440;15.470;2022-07-12T02:11:08;101322.25;;;12.63;100.00
13420;BME280;6781;58.440;15.470;2022-07-12T02:13:35;101298.69;;;12.43;100.00
13420;BME280;6781;58.440;15.470;2022-07-12T02:16:03;101324.13;;;12.50;100.00
13420;BME280;6781;58.440;15.470;2022-07-12T02:18:32;101304.09;;;12.39;100.00
13420;BME280;6781;58.440;15.470;2022-07-12T02:20:59;101317.59;;;12.45;100.00
13420;BME280;6781;58.440;15.470;2022-07-12T02:23:27;101315.94;;;12.44;100.00
13420;BME280;6781;58.440;15.470;2022-07-12T02:25:54;101319.50;;;12.43;100.00
13420;BME280;6781;58.440;15.470;2022-07-12T02:28:21;101339.09;;;12.35;100.00
13420;BME280;6781;58.440;15.470;2022-07-12T02:30:47;101255.09;;;12.00;100.00
13420;BME280;6781;58.440;15.470;2022-07-12T02:33:16;101252.28;;;12.03;100.00
13420;BME280;6781;58.440;15.470;2022-07-12T02:35:45;101292.09;;;12.03;100.00
13420;BME280;6781;58.440;15.470;2022-07-12T02:38:11;101345.13;;;12.36;100.00
13420;BME280;6781;58.440;15.470;2022-07-12T02:40:38;101331.31;;;12.47;100.00
13420;BME280;6781;58.440;15.470;2022-07-12T02:43:20;101283.63;;;12.24;100.00
13420;BME280;6781;58.440;15.470;2022-07-12T02:45:47;101320.19;;;12.45;100.00
13420;BME280;6781;58.440;15.470;2022-07-12T02:48:16;101327.53;;;12.39;100.00
13420;BME280;6781;58.440;15.470;2022-07-12T02:50:43;101258.41;;;12.02;100.00
13420;BME280;6781;58.440;15.470;2022-07-12T02:53:11;101236.81;;;11.78;100.00
13420;BME280;6781;58.440;15.470;2022-07-12T02:55:38;101197.84;;;11.54;100.00
13420;BME280;6781;58.440;15.470;2022-07-12T02:58:05;101339.59;;;12.41;100.00
13420;BME280;6781;58.440;15.470;2022-07-12T03:00:32;101291.03;;;12.17;100.00
13420;BME280;6781;58.440;15.470;2022-07-12T03:03:00;101331.78;;;12.41;100.00
13420;BME280;6781;58.440;15.470;2022-07-12T03:05:28;101329.06;;;12.42;100.00
13420;BME280;6781;58.440;15.470;2022-07-12T03:07:55;101249.59;;;11.81;100.00
13420;BME280;6781;58.440;15.470;2022-07-12T03:10:21;101212.88;;;11.61;100.00
13420;BME280;6781;58.440;15.470;2022-07-12T03:12:48;101319.09;;;12.25;100.00
13420;BME280;6781;58.440;15.470;2022-07-12T03:15:15;101298.63;;;12.20;100.00
13420;BME280;6781;58.440;15.470;2022-07-12T03:17:42;101331.69;;;12.53;100.00
13420;BME280;6781;58.440;15.470;2022-07-12T03:20:09;101252.97;;;12.05;100.00
13420;BME280;6781;58.440;15.470;2022-07-12T03:22:41;101297.00;;;12.42;100.00
13420;BME280;6781;58.440;15.470;2022-07-12T03:25:09;101290.13;;;12.29;100.00
13420;BME280;6781;58.440;15.470;2022-07-12T03:27:36;101275.25;;;12.31;100.00
13420;BME280;6781;58.440;15.470;2022-07-12T03:30:03;101322.38;;;12.73;100.00
13420;BME280;6781;58.440;15.470;2022-07-12T03:32:30;101316.94;;;12.76;100.00
13420;BME280;6781;58.440;15.470;2022-07-12T03:34:57;101348.78;;;13.02;100.00
13420;BME280;6781;58.440;15.470;2022-07-12T03:37:24;101335.41;;;13.07;100.00
13420;BME280;6781;58.440;15.470;2022-07-12T03:39:52;101331.88;;;13.08;100.00
13420;BME280;6781;58.440;15.470;2022-07-12T03:42:19;101190.13;;;12.33;100.00
13420;BME280;6781;58.440;15.470;2022-07-12T03:44:46;101323.47;;;13.15;100.00
13420;BME280;6781;58.440;15.470;2022-07-12T03:47:13;101221.56;;;12.53;100.00
13420;BME280;6781;58.440;15.470;2022-07-12T03:49:40;101338.63;;;13.21;100.00
13420;BME280;6781;58.440;15.470;2022-07-12T03:52:07;101319.47;;;13.22;100.00
13420;BME280;6781;58.440;15.470;2022-07-12T03:54:34;101299.78;;;13.07;100.00
13420;BME280;6781;58.440;15.470;2022-07-12T03:57:02;101266.28;;;12.80;100.00
13420;BME280;6781;58.440;15.470;2022-07-12T03:59:41;101316.59;;;13.14;100.00
13420;BME280;6781;58.440;15.470;2022-07-12T04:02:08;101320.75;;;13.17;100.00
13420;BME280;6781;58.440;15.470;2022-07-12T04:04:35;101226.31;;;12.59;100.00
13420;BME280;6781;58.440;15.470;2022-07-12T04:07:02;101277.66;;;12.90;100.00
13420;BME280;6781;58.440;15.470;2022-07-12T04:09:30;101297.53;;;13.02;100.00
13420;BME280;6781;58.440;15.470;2022-07-12T04:11:57;101305.13;;;13.17;100.00
13420;BME280;6781;58.440;15.470;2022-07-12T04:14:25;101312.00;;;13.18;100.00
13420;BME280;6781;58.440;15.470;2022-07-12T04:16:53;101136.78;;;12.17;100.00
13420;BME280;6781;58.440;15.470;2022-07-12T04:19:20;101312.72;;;13.20;100.00
13420;BME280;6781;58.440;15.470;2022-07-12T04:21:49;101284.88;;;13.09;100.00
13420;BME280;6781;58.440;15.470;2022-07-12T04:24:16;101214.25;;;12.58;100.00
13420;BME280;6781;58.440;15.470;2022-07-12T04:26:43;101295.66;;;13.27;100.00
13420;BME280;6781;58.440;15.470;2022-07-12T04:29:10;101258.00;;;12.97;100.00
13420;BME280;6781;58.440;15.470;2022-07-12T04:31:38;101312.00;;;13.29;100.00
13420;BME280;6781;58.440;15.470;2022-07-12T04:34:05;101250.41;;;13.06;100.00
13420;BME280;6781;58.440;15.470;2022-07-12T04:36:32;101224.88;;;12.88;100.00
13420;BME280;6781;58.440;15.470;2022-07-12T04:38:59;101269.84;;;13.24;100.00
13420;BME280;6781;58.440;15.470;2022-07-12T04:41:26;101288.28;;;13.43;100.00
13420;BME280;6781;58.440;15.470;2022-07-12T04:43:53;101287.31;;;13.44;100.00
13420;BME280;6781;58.440;15.470;2022-07-12T04:46:19;101296.56;;;13.48;100.00
13420;BME280;6781;58.440;15.470;2022-07-12T04:48:48;101216.59;;;12.94;100.00
13420;BME280;6781;58.440;15.470;2022-07-12T04:51:14;101295.25;;;13.54;100.00
13420;BME280;6781;58.440;15.470;2022-07-12T04:53:42;101280.47;;;13.43;100.00
13420;BME280;6781;58.440;15.470;2022-07-12T04:56:09;101281.03;;;13.47;100.00
13420;BME280;6781;58.440;15.470;2022-07-12T04:58:35;101292.50;;;13.55;100.00
13420;BME280;6781;58.440;15.470;2022-07-12T05:01:02;101294.13;;;13.67;100.00
13420;BME280;6781;58.440;15.470;2022-07-12T05:03:29;101302.78;;;13.89;100.00
13420;BME280;6781;58.440;15.470;2022-07-12T05:05:57;101320.44;;;13.96;100.00
13420;BME280;6781;58.440;15.470;2022-07-12T05:08:24;101296.22;;;13.85;100.00
13420;BME280;6781;58.440;15.470;2022-07-12T05:10:54;101311.72;;;14.07;100.00
13420;BME280;6781;58.440;15.470;2022-07-12T05:13:21;101306.97;;;14.12;100.00
13420;BME280;6781;58.440;15.470;2022-07-12T05:15:47;101278.06;;;14.04;100.00
13420;BME280;6781;58.440;15.470;2022-07-12T05:18:14;101312.28;;;14.43;100.00
13420;BME280;6781;58.440;15.470;2022-07-12T05:20:41;101248.34;;;14.16;100.00
13420;BME280;6781;58.440;15.470;2022-07-12T05:23:09;101321.81;;;14.74;100.00
13420;BME280;6781;58.440;15.470;2022-07-12T05:25:36;101327.72;;;14.76;100.00
13420;BME280;6781;58.440;15.470;2022-07-12T05:28:03;101310.63;;;14.93;100.00
13420;BME280;6781;58.440;15.470;2022-07-12T05:30:30;101205.59;;;14.28;100.00
13420;BME280;6781;58.440;15.470;2022-07-12T05:32:57;101291.94;;;14.97;100.00
13420;BME280;6781;58.440;15.470;2022-07-12T05:35:25;101335.75;;;15.24;100.00
13420;BME280;6781;58.440;15.470;2022-07-12T05:37:52;101324.38;;;15.35;100.00
13420;BME280;6781;58.440;15.470;2022-07-12T05:40:20;101321.81;;;15.54;100.00
13420;BME280;6781;58.440;15.470;2022-07-12T05:42:47;101329.94;;;15.61;100.00
13420;BME280;6781;58.440;15.470;2022-07-12T05:45:14;101213.03;;;15.04;100.00
13420;BME280;6781;58.440;15.470;2022-07-12T05:47:41;101149.44;;;14.74;100.00
13420;BME280;6781;58.440;15.470;2022-07-12T05:50:08;101221.59;;;15.25;100.00
13420;BME280;6781;58.440;15.470;2022-07-12T05:52:35;101223.53;;;15.42;100.00
13420;BME280;6781;58.440;15.470;2022-07-12T05:55:21;101307.78;;;16.04;100.00
13420;BME280;6781;58.440;15.470;2022-07-12T05:57:48;101286.72;;;15.95;100.00
13420;BME280;6781;58.440;15.470;2022-07-12T06:00:14;101320.72;;;16.24;100.00
13420;BME280;6781;58.440;15.470;2022-07-12T06:02:41;101282.44;;;16.14;100.00
13420;BME280;6781;58.440;15.470;2022-07-12T06:05:09;101341.38;;;16.47;100.00
13420;BME280;6781;58.440;15.470;2022-07-12T06:07:35;101283.13;;;16.25;100.00
13420;BME280;6781;58.440;15.470;2022-07-12T06:10:03;101305.38;;;16.49;100.00
13420;BME280;6781;58.440;15.470;2022-07-12T06:12:31;101314.59;;;16.72;100.00
13420;BME280;6781;58.440;15.470;2022-07-12T06:14:58;101307.66;;;16.81;100.00
13420;BME280;6781;58.440;15.470;2022-07-12T06:17:25;101293.06;;;16.78;100.00
13420;BME280;6781;58.440;15.470;2022-07-12T06:19:52;101298.41;;;16.86;100.00
13420;BME280;6781;58.440;15.470;2022-07-12T06:22:18;101264.53;;;16.75;100.00
13420;BME280;6781;58.440;15.470;2022-07-12T06:24:46;101306.66;;;17.19;100.00
13420;BME280;6781;58.440;15.470;2022-07-12T06:27:13;101298.50;;;17.22;100.00
13420;BME280;6781;58.440;15.470;2022-07-12T06:29:41;101168.47;;;16.66;100.00
13420;BME280;6781;58.440;15.470;2022-07-12T06:32:13;101237.53;;;17.20;100.00
13420;BME280;6781;58.440;15.470;2022-07-12T06:34:39;101298.50;;;17.67;100.00
13420;BME280;6781;58.440;15.470;2022-07-12T06:37:06;101289.56;;;17.78;100.00
13420;BME280;6781;58.440;15.470;2022-07-12T06:39:34;101246.59;;;17.43;100.00
13420;BME280;6781;58.440;15.470;2022-07-12T06:42:01;101227.25;;;17.44;100.00
13420;BME280;6781;58.440;15.470;2022-07-12T06:44:29;101234.38;;;17.52;100.00
13420;BME280;6781;58.440;15.470;2022-07-12T06:46:58;101227.34;;;17.70;100.00
13420;BME280;6781;58.440;15.470;2022-07-12T06:49:25;101272.50;;;18.17;100.00
13420;BME280;6781;58.440;15.470;2022-07-12T06:51:54;101272.09;;;18.30;100.00
13420;BME280;6781;58.440;15.470;2022-07-12T06:54:21;101207.75;;;17.82;100.00
13420;BME280;6781;58.440;15.470;2022-07-12T06:56:48;101266.75;;;18.40;100.00
13420;BME280;6781;58.440;15.470;2022-07-12T06:59:15;101257.59;;;18.52;100.00
13420;BME280;6781;58.440;15.470;2022-07-12T07:01:42;101151.81;;;18.08;100.00
13420;BME280;6781;58.440;15.470;2022-07-12T07:04:10;101275.88;;;18.88;100.00
13420;BME280;6781;58.440;15.470;2022-07-12T07:06:37;101267.41;;;19.02;100.00
13420;BME280;6781;58.440;15.470;2022-07-12T07:09:03;101132.75;;;18.40;100.00
13420;BME280;6781;58.440;15.470;2022-07-12T07:11:33;101227.78;;;19.19;100.00
13420;BME280;6781;58.440;15.470;2022-07-12T07:14:02;101191.78;;;19.04;100.00
13420;BME280;6781;58.440;15.470;2022-07-12T07:16:29;101252.56;;;19.83;100.00
13420;BME280;6781;58.440;15.470;2022-07-12T07:18:56;101247.44;;;19.98;100.00
13420;BME280;6781;58.440;15.470;2022-07-12T07:21:24;101105.66;;;19.38;100.00
13420;BME280;6781;58.440;15.470;2022-07-12T07:23:51;101228.56;;;20.58;100.00
13420;BME280;6781;58.440;15.470;2022-07-12T07:26:18;101235.97;;;20.94;100.00
13420;BME280;6781;58.440;15.470;2022-07-12T07:28:44;101188.63;;;20.77;100.00
13420;BME280;6781;58.440;15.470;2022-07-12T07:31:29;101183.91;;;20.88;100.00
13420;BME280;6781;58.440;15.470;2022-07-12T07:33:56;101211.66;;;21.37;100.00
13420;BME280;6781;58.440;15.470;2022-07-12T07:36:24;101142.09;;;21.30;100.00
13420;BME280;6781;58.440;15.470;2022-07-12T07:38:51;101224.97;;;22.04;100.00
13420;BME280;6781;58.440;15.470;2022-07-12T07:41:18;101228.47;;;22.34;100.00
13420;BME280;6781;58.440;15.470;2022-07-12T07:43:44;101226.34;;;22.59;98.63
13420;BME280;6781;58.440;15.470;2022-07-12T07:46:11;101183.81;;;22.61;96.28
13420;BME280;6781;58.440;15.470;2022-07-12T07:48:38;101227.50;;;23.22;97.11
13420;BME280;6781;58.440;15.470;2022-07-12T07:51:05;101119.88;;;22.72;95.84
13420;BME280;6781;58.440;15.470;2022-07-12T07:53:33;101133.53;;;23.12;92.28
13420;BME280;6781;58.440;15.470;2022-07-12T07:56:00;101211.56;;;23.58;87.87
13420;BME280;6781;58.440;15.470;2022-07-12T07:58:27;101218.88;;;23.78;90.54
13420;BME280;6781;58.440;15.470;2022-07-12T08:00:54;101052.78;;;22.58;87.06
13420;BME280;6781;58.440;15.470;2022-07-12T08:03:21;101029.72;;;22.73;81.58
13420;BME280;6781;58.440;15.470;2022-07-12T08:05:49;101174.19;;;24.02;85.72
13420;BME280;6781;58.440;15.470;2022-07-12T08:08:17;101091.44;;;23.73;81.67
13420;BME280;6781;58.440;15.470;2022-07-12T08:10:45;101217.34;;;24.65;78.46
13420;BME280;6781;58.440;15.470;2022-07-12T08:13:12;101136.75;;;24.19;74.27
13420;BME280;6781;58.440;15.470;2022-07-12T08:15:39;101212.38;;;23.80;67.03
13420;BME280;6781;58.440;15.470;2022-07-12T08:18:05;101203.69;;;24.27;68.06
13420;BME280;6781;58.440;15.470;2022-07-12T08:20:32;101194.53;;;24.30;68.12
13420;BME280;6781;58.440;15.470;2022-07-12T08:22:59;101198.66;;;24.05;68.59
13420;BME280;6781;58.440;15.470;2022-07-12T08:25:26;101192.28;;;24.27;66.30
13420;BME280;6781;58.440;15.470;2022-07-12T08:27:54;101194.69;;;25.30;71.25
13420;BME280;6781;58.440;15.470;2022-07-12T08:30:21;101192.47;;;25.80;64.74
13420;BME280;6781;58.440;15.470;2022-07-12T08:32:48;101160.28;;;24.96;56.96
13420;BME280;6781;58.440;15.470;2022-07-12T08:35:14;101178.75;;;25.30;58.80
13420;BME280;6781;58.440;15.470;2022-07-12T08:37:41;101176.72;;;25.66;58.40
13420;BME280;6781;58.440;15.470;2022-07-12T08:40:08;101117.84;;;25.42;56.49
13420;BME280;6781;58.440;15.470;2022-07-12T08:42:36;101174.94;;;26.37;60.74
13420;BME280;6781;58.440;15.470;2022-07-12T08:45:09;101154.81;;;26.48;60.08
13420;BME280;6781;58.440;15.470;2022-07-12T08:47:36;101154.31;;;26.71;54.79
13420;BME280;6781;58.440;15.470;2022-07-12T08:50:10;101107.81;;;26.35;54.35
13420;BME280;6781;58.440;15.470;2022-07-12T08:52:38;101163.38;;;27.01;55.40
13420;BME280;6781;58.440;15.470;2022-07-12T08:55:15;101083.53;;;26.88;57.23
13420;BME280;6781;58.440;15.470;2022-07-12T08:57:43;101153.88;;;27.37;52.68
13420;BME280;6781;58.440;15.470;2022-07-12T09:00:12;101121.19;;;26.98;50.78
13420;BME280;6781;58.440;15.470;2022-07-12T09:02:43;101147.78;;;27.30;52.37
13420;BME280;6781;58.440;15.470;2022-07-12T09:05:11;101071.53;;;27.29;52.13
13420;BME280;6781;58.440;15.470;2022-07-12T09:07:39;101116.28;;;27.70;49.23
13420;BME280;6781;58.440;15.470;2022-07-12T09:10:07;101029.38;;;26.44;48.82
13420;BME280;6781;58.440;15.470;2022-07-12T09:12:34;101130.56;;;27.94;53.36
13420;BME280;6781;58.440;15.470;2022-07-12T09:15:17;101079.56;;;27.47;48.23
13420;BME280;6781;58.440;15.470;2022-07-12T09:18:00;101112.91;;;28.11;49.12
13420;BME280;6781;58.440;15.470;2022-07-12T09:20:28;101069.25;;;28.54;48.65
13420;BME280;6781;58.440;15.470;2022-07-12T09:22:56;101105.88;;;28.16;48.47
13420;BME280;6781;58.440;15.470;2022-07-12T09:25:23;101096.78;;;28.84;49.83
13420;BME280;6781;58.440;15.470;2022-07-12T09:27:51;101098.50;;;28.48;47.05
13420;BME280;6781;58.440;15.470;2022-07-12T09:30:20;101080.00;;;28.77;50.47
13420;BME280;6781;58.440;15.470;2022-07-12T09:32:53;101083.66;;;28.94;48.64
13420;BME280;6781;58.440;15.470;2022-07-12T09:35:38;101028.28;;;27.08;45.64
13420;BME280;6781;58.440;15.470;2022-07-12T09:38:23;101062.13;;;27.26;47.47
13420;BME280;6781;58.440;15.470;2022-07-12T09:40:50;101036.63;;;27.55;46.61
13420;BME280;6781;58.440;15.470;2022-07-12T09:43:18;101042.91;;;26.68;45.54
13420;BME280;6781;58.440;15.470;2022-07-12T09:45:48;101094.19;;;27.99;45.69
13420;BME280;6781;58.440;15.470;2022-07-12T09:48:15;101076.38;;;28.11;45.50
13420;BME280;6781;58.440;15.470;2022-07-12T09:50:47;101050.28;;;27.65;44.83
13420;BME280;6781;58.440;15.470;2022-07-12T09:53:19;101087.13;;;28.05;45.33
13420;BME280;6781;58.440;15.470;2022-07-12T09:55:49;101104.53;;;26.33;46.81
13420;BME280;6781;58.440;15.470;2022-07-12T09:58:22;101112.16;;;26.16;47.32
13420;BME280;6781;58.440;15.470;2022-07-12T10:00:52;101104.50;;;27.09;46.53
13420;BME280;6781;58.440;15.470;2022-07-12T10:03:21;101061.69;;;26.79;45.65
13420;BME280;6781;58.440;15.470;2022-07-12T10:05:50;101103.75;;;27.88;47.28
13420;BME280;6781;58.440;15.470;2022-07-12T10:08:19;100997.69;;;27.72;45.62
13420;BME280;6781;58.440;15.470;2022-07-12T10:10:47;101082.47;;;28.48;43.83
13420;BME280;6781;58.440;15.470;2022-07-12T10:13:16;101116.09;;;29.79;48.69
13420;BME280;6781;58.440;15.470;2022-07-12T10:15:44;101050.31;;;28.85;41.61
13420;BME280;6781;58.440;15.470;2022-07-12T10:18:18;101045.44;;;27.74;42.34
13420;BME280;6781;58.440;15.470;2022-07-12T10:20:45;101082.88;;;29.05;45.42
13420;BME280;6781;58.440;15.470;2022-07-12T10:23:32;101058.59;;;29.19;42.15
13420;BME280;6781;58.440;15.470;2022-07-12T10:26:24;101065.56;;;29.95;45.67
13420;BME280;6781;58.440;15.470;2022-07-12T10:28:56;101043.59;;;29.18;40.76
13420;BME280;6781;58.440;15.470;2022-07-12T10:31:24;101035.19;;;28.79;40.32
13420;BME280;6781;58.440;15.470;2022-07-12T10:34:13;101028.19;;;30.11;40.94
13420;BME280;6781;58.440;15.470;2022-07-12T10:37:08;101013.84;;;29.77;39.45
13420;BME280;6781;58.440;15.470;2022-07-12T10:39:36;101025.00;;;28.99;39.70
13420;BME280;6781;58.440;15.470;2022-07-12T10:42:13;101029.19;;;29.19;40.04
13420;BME280;6781;58.440;15.470;2022-07-12T10:44:41;101027.00;;;29.15;41.45
13420;BME280;6781;58.440;15.470;2022-07-12T10:47:10;101028.03;;;30.18;40.93
13420;BME280;6781;58.440;15.470;2022-07-12T10:49:46;100928.75;;;30.20;40.75
13420;BME280;6781;58.440;15.470;2022-07-12T10:52:15;100978.56;;;31.04;39.40
13420;BME280;6781;58.440;15.470;2022-07-12T10:54:46;101041.41;;;31.52;42.43
13420;BME280;6781;58.440;15.470;2022-07-12T10:57:16;101003.19;;;31.40;41.21
13420;BME280;6781;58.440;15.470;2022-07-12T10:59:46;100836.28;;;29.50;39.64
13420;BME280;6781;58.440;15.470;2022-07-12T11:02:17;101022.09;;;31.12;40.37
13420;BME280;6781;58.440;15.470;2022-07-12T11:04:50;100989.00;;;31.23;40.46
13420;BME280;6781;58.440;15.470;2022-07-12T11:07:17;100990.81;;;31.39;39.35
13420;BME280;6781;58.440;15.470;2022-07-12T11:09:44;100874.75;;;29.77;40.06
13420;BME280;6781;58.440;15.470;2022-07-12T11:12:10;101013.22;;;29.59;40.09
13420;BME280;6781;58.440;15.470;2022-07-12T11:14:44;100980.16;;;30.05;42.28
13420;BME280;6781;58.440;15.470;2022-07-12T11:17:12;100971.44;;;30.26;40.37
13420;BME280;6781;58.440;15.470;2022-07-12T11:19:39;101015.47;;;30.97;42.18
13420;BME280;6781;58.440;15.470;2022-07-12T11:22:08;101008.53;;;30.51;41.77
13420;BME280;6781;58.440;15.470;2022-07-12T11:24:34;100864.88;;;29.50;39.22
13420;BME280;6781;58.440;15.470;2022-07-12T11:27:01;100978.50;;;29.75;41.48
13420;BME280;6781;58.440;15.470;2022-07-12T11:29:30;101008.50;;;29.02;41.49
13420;BME280;6781;58.440;15.470;2022-07-12T11:32:02;101030.69;;;29.26;44.38
13420;BME280;6781;58.440;15.470;2022-07-12T11:34:33;101014.44;;;29.04;42.50
13420;BME280;6781;58.440;15.470;2022-07-12T11:37:00;101004.22;;;28.36;41.69
13420;BME280;6781;58.440;15.470;2022-07-12T11:39:33;100963.59;;;28.04;42.05
13420;BME280;6781;58.440;15.470;2022-07-12T11:42:01;101011.50;;;27.81;42.61
13420;BME280;6781;58.440;15.470;2022-07-12T11:44:44;101002.88;;;28.69;42.86
13420;BME280;6781;58.440;15.470;2022-07-12T11:47:11;100992.63;;;27.82;41.42
13420;BME280;6781;58.440;15.470;2022-07-12T11:49:42;101007.94;;;29.24;42.70
13420;BME280;6781;58.440;15.470;2022-07-12T11:52:12;100942.75;;;28.78;41.20
13420;BME280;6781;58.440;15.470;2022-07-12T11:54:43;100991.16;;;28.81;40.83
13420;BME280;6781;58.440;15.470;2022-07-12T11:57:11;100994.22;;;28.02;40.75
13420;BME280;6781;58.440;15.470;2022-07-12T11:59:38;100950.28;;;28.69;42.45
13420;BME280;6781;58.440;15.470;2022-07-12T12:02:06;101004.59;;;29.68;41.46
13420;BME280;6781;58.440;15.470;2022-07-12T12:04:44;101021.03;;;30.00;41.96
13420;BME280;6781;58.440;15.470;2022-07-12T12:07:11;100942.53;;;29.55;41.06
13420;BME280;6781;58.440;15.470;2022-07-12T12:10:03;101002.78;;;30.42;40.52
13420;BME280;6781;58.440;15.470;2022-07-12T12:12:37;101009.53;;;30.79;41.63
13420;BME280;6781;58.440;15.470;2022-07-12T12:15:06;100977.13;;;29.44;39.86
13420;BME280;6781;58.440;15.470;2022-07-12T12:17:36;101016.53;;;30.18;38.99
13420;BME280;6781;58.440;15.470;2022-07-12T12:20:11;100997.81;;;29.77;39.91
13420;BME280;6781;58.440;15.470;2022-07-12T12:22:38;100963.78;;;29.61;40.91
13420;BME280;6781;58.440;15.470;2022-07-12T12:25:07;100859.06;;;29.24;40.31
13420;BME280;6781;58.440;15.470;2022-07-12T12:27:46;100929.63;;;29.52;40.50
13420;BME280;6781;58.440;15.470;2022-07-12T12:30:15;100971.25;;;30.16;41.08
13420;BME280;6781;58.440;15.470;2022-07-12T12:32:47;100983.44;;;30.40;38.44
13420;BME280;6781;58.440;15.470;2022-07-12T12:35:15;100991.19;;;30.70;39.22
13420;BME280;6781;58.440;15.470;2022-07-12T12:37:49;100926.31;;;30.52;39.98
13420;BME280;6781;58.440;15.470;2022-07-12T12:40:20;100827.00;;;28.37;38.67
13420;BME280;6781;58.440;15.470;2022-07-12T12:42:47;100968.19;;;29.96;39.98
13420;BME280;6781;58.440;15.470;2022-07-12T12:45:18;100896.91;;;29.33;39.79
13420;BME280;6781;58.440;15.470;2022-07-12T12:47:59;100972.75;;;30.40;39.53
13420;BME280;6781;58.440;15.470;2022-07-12T12:50:41;100960.28;;;30.01;38.49
13420;BME280;6781;58.440;15.470;2022-07-12T12:53:10;100962.84;;;29.96;38.68